sensor_id;sensor_type;location;lat;lon;timestamp;P1;durP1;ratioP1;P2;durP2;ratioP2
21727;SDS011;11026;50.560;17.852;2022-11-27T00:01:30;136.38;;;48.80;;
21727;SDS011;11026;50.560;17.852;2022-11-27T00:03:59;146.52;;;49.67;;
21727;SDS011;11026;50.560;17.852;2022-11-27T00:06:26;137.68;;;49.25;;
21727;SDS011;11026;50.560;17.852;2022-11-27T00:09:04;151.98;;;50.55;;
21727;SDS011;11026;50.560;17.852;2022-11-27T00:11:34;163.90;;;55.53;;
21727;SDS011;11026;50.560;17.852;2022-11-27T00:14:01;174.52;;;59.60;;
21727;SDS011;11026;50.560;17.852;2022-11-27T00:16:29;163.55;;;59.15;;
21727;SDS011;11026;50.560;17.852;2022-11-27T00:18:56;160.48;;;61.03;;
21727;SDS011;11026;50.560;17.852;2022-11-27T00:21:25;193.13;;;67.80;;
21727;SDS011;11026;50.560;17.852;2022-11-27T00:23:58;162.27;;;59.35;;
21727;SDS011;11026;50.560;17.852;2022-11-27T00:26:27;168.68;;;56.85;;
21727;SDS011;11026;50.560;17.852;2022-11-27T00:29:02;153.57;;;55.15;;
21727;SDS011;11026;50.560;17.852;2022-11-27T00:31:31;139.50;;;50.85;;
21727;SDS011;11026;50.560;17.852;2022-11-27T00:34:00;127.90;;;46.88;;
21727;SDS011;11026;50.560;17.852;2022-11-27T00:36:31;122.28;;;47.97;;
21727;SDS011;11026;50.560;17.852;2022-11-27T00:38:59;135.23;;;46.55;;
21727;SDS011;11026;50.560;17.852;2022-11-27T00:41:28;122.60;;;46.75;;
21727;SDS011;11026;50.560;17.852;2022-11-27T00:43:58;136.95;;;48.60;;
21727;SDS011;11026;50.560;17.852;2022-11-27T00:46:26;139.23;;;50.55;;
21727;SDS011;11026;50.560;17.852;2022-11-27T00:48:57;137.55;;;50.78;;
21727;SDS011;11026;50.560;17.852;2022-11-27T00:51:26;140.45;;;50.97;;
21727;SDS011;11026;50.560;17.852;2022-11-27T00:53:56;160.13;;;53.78;;
21727;SDS011;11026;50.560;17.852;2022-11-27T00:56:28;160.25;;;54.35;;
21727;SDS011;11026;50.560;17.852;2022-11-27T00:58:59;155.98;;;53.65;;
21727;SDS011;11026;50.560;17.852;2022-11-27T01:01:31;145.95;;;52.13;;
21727;SDS011;11026;50.560;17.852;2022-11-27T01:04:02;150.88;;;50.95;;
21727;SDS011;11026;50.560;17.852;2022-11-27T01:06:31;152.45;;;51.28;;
21727;SDS011;11026;50.560;17.852;2022-11-27T01:08:58;145.90;;;50.35;;
21727;SDS011;11026;50.560;17.852;2022-11-27T01:11:27;147.50;;;51.85;;
21727;SDS011;11026;50.560;17.852;2022-11-27T01:13:57;133.60;;;51.58;;
21727;SDS011;11026;50.560;17.852;2022-11-27T01:16:28;153.05;;;54.45;;
21727;SDS011;11026;50.560;17.852;2022-11-27T01:18:59;140.50;;;52.55;;
21727;SDS011;11026;50.560;17.852;2022-11-27T01:21:28;151.50;;;52.25;;
21727;SDS011;11026;50.560;17.852;2022-11-27T01:23:58;140.52;;;49.20;;
21727;SDS011;11026;50.560;17.852;2022-11-27T01:26:26;123.30;;;50.25;;
21727;SDS011;11026;50.560;17.852;2022-11-27T01:28:54;128.15;;;48.10;;
21727;SDS011;11026;50.560;17.852;2022-11-27T01:31:27;110.00;;;45.10;;
21727;SDS011;11026;50.560;17.852;2022-11-27T01:34:03;129.05;;;45.13;;
21727;SDS011;11026;50.560;17.852;2022-11-27T01:36:32;117.68;;;46.38;;
21727;SDS011;11026;50.560;17.852;2022-11-27T01:39:00;120.05;;;43.63;;
21727;SDS011;11026;50.560;17.852;2022-11-27T01:41:38;119.50;;;44.88;;
21727;SDS011;11026;50.560;17.852;2022-11-27T01:46:52;121.80;;;42.42;;
21727;SDS011;11026;50.560;17.852;2022-11-27T01:52:02;119.03;;;43.53;;
21727;SDS011;11026;50.560;17.852;2022-11-27T01:54:55;128.82;;;44.25;;
21727;SDS011;11026;50.560;17.852;2022-11-27T01:57:49;126.55;;;42.55;;
21727;SDS011;11026;50.560;17.852;2022-11-27T02:00:23;121.40;;;42.22;;
21727;SDS011;11026;50.560;17.852;2022-11-27T02:02:51;125.95;;;42.80;;
21727;SDS011;11026;50.560;17.852;2022-11-27T02:05:21;138.65;;;43.13;;
21727;SDS011;11026;50.560;17.852;2022-11-27T02:07:51;136.38;;;45.88;;
21727;SDS011;11026;50.560;17.852;2022-11-27T02:10:20;137.50;;;46.08;;
21727;SDS011;11026;50.560;17.852;2022-11-27T02:12:55;132.70;;;45.78;;
21727;SDS011;11026;50.560;17.852;2022-11-27T02:18:39;128.25;;;42.63;;
21727;SDS011;11026;50.560;17.852;2022-11-27T02:26:55;113.10;;;44.28;;
21727;SDS011;11026;50.560;17.852;2022-11-27T02:29:30;114.13;;;41.85;;
21727;SDS011;11026;50.560;17.852;2022-11-27T02:32:19;117.97;;;41.10;;
21727;SDS011;11026;50.560;17.852;2022-11-27T02:34:57;117.28;;;41.47;;
21727;SDS011;11026;50.560;17.852;2022-11-27T02:40:13;123.70;;;42.60;;
21727;SDS011;11026;50.560;17.852;2022-11-27T02:43:10;124.93;;;42.47;;
21727;SDS011;11026;50.560;17.852;2022-11-27T02:45:46;129.75;;;42.40;;
21727;SDS011;11026;50.560;17.852;2022-11-27T02:48:17;134.67;;;45.47;;
21727;SDS011;11026;50.560;17.852;2022-11-27T02:50:47;162.02;;;46.10;;
21727;SDS011;11026;50.560;17.852;2022-11-27T02:53:19;147.73;;;46.53;;
21727;SDS011;11026;50.560;17.852;2022-11-27T02:58:25;145.75;;;44.45;;
21727;SDS011;11026;50.560;17.852;2022-11-27T03:00:53;154.02;;;44.72;;
21727;SDS011;11026;50.560;17.852;2022-11-27T03:03:25;142.90;;;45.38;;
21727;SDS011;11026;50.560;17.852;2022-11-27T03:06:00;163.27;;;44.78;;
21727;SDS011;11026;50.560;17.852;2022-11-27T03:11:13;199.52;;;46.78;;
21727;SDS011;11026;50.560;17.852;2022-11-27T03:13:45;141.07;;;43.92;;
21727;SDS011;11026;50.560;17.852;2022-11-27T03:22:09;186.18;;;50.60;;
21727;SDS011;11026;50.560;17.852;2022-11-27T03:24:37;161.57;;;47.65;;
21727;SDS011;11026;50.560;17.852;2022-11-27T03:27:05;240.65;;;49.97;;
21727;SDS011;11026;50.560;17.852;2022-11-27T03:29:43;306.85;;;50.83;;
21727;SDS011;11026;50.560;17.852;2022-11-27T03:32:14;237.27;;;47.67;;
21727;SDS011;11026;50.560;17.852;2022-11-27T03:34:42;218.30;;;50.45;;
21727;SDS011;11026;50.560;17.852;2022-11-27T03:37:10;293.10;;;49.72;;
21727;SDS011;11026;50.560;17.852;2022-11-27T03:39:37;364.05;;;49.17;;
21727;SDS011;11026;50.560;17.852;2022-11-27T03:42:09;261.08;;;50.08;;
21727;SDS011;11026;50.560;17.852;2022-11-27T03:53:09;206.60;;;43.55;;
21727;SDS011;11026;50.560;17.852;2022-11-27T03:55:53;342.45;;;43.08;;
21727;SDS011;11026;50.560;17.852;2022-11-27T03:58:40;412.42;;;50.80;;
21727;SDS011;11026;50.560;17.852;2022-11-27T04:01:18;589.92;;;56.28;;
21727;SDS011;11026;50.560;17.852;2022-11-27T04:03:48;321.73;;;44.72;;
21727;SDS011;11026;50.560;17.852;2022-11-27T04:06:16;239.40;;;45.58;;
21727;SDS011;11026;50.560;17.852;2022-11-27T04:08:44;375.90;;;45.97;;
21727;SDS011;11026;50.560;17.852;2022-11-27T04:11:13;444.17;;;51.88;;
21727;SDS011;11026;50.560;17.852;2022-11-27T04:13:41;381.92;;;49.78;;
21727;SDS011;11026;50.560;17.852;2022-11-27T04:16:09;458.15;;;53.33;;
21727;SDS011;11026;50.560;17.852;2022-11-27T04:18:38;471.80;;;51.80;;
21727;SDS011;11026;50.560;17.852;2022-11-27T04:21:05;187.20;;;43.75;;
21727;SDS011;11026;50.560;17.852;2022-11-27T04:23:34;371.45;;;50.35;;
21727;SDS011;11026;50.560;17.852;2022-11-27T04:26:03;206.38;;;44.38;;
21727;SDS011;11026;50.560;17.852;2022-11-27T04:28:31;250.00;;;46.78;;
21727;SDS011;11026;50.560;17.852;2022-11-27T04:30:59;177.80;;;45.47;;
21727;SDS011;11026;50.560;17.852;2022-11-27T04:33:26;381.38;;;51.83;;
21727;SDS011;11026;50.560;17.852;2022-11-27T04:35:54;293.60;;;45.75;;
21727;SDS011;11026;50.560;17.852;2022-11-27T04:38:22;479.10;;;50.72;;
21727;SDS011;11026;50.560;17.852;2022-11-27T04:40:52;181.82;;;43.92;;
21727;SDS011;11026;50.560;17.852;2022-11-27T04:43:21;183.10;;;42.13;;
21727;SDS011;11026;50.560;17.852;2022-11-27T04:45:48;375.45;;;47.33;;
21727;SDS011;11026;50.560;17.852;2022-11-27T04:48:16;450.00;;;47.35;;
21727;SDS011;11026;50.560;17.852;2022-11-27T04:50:43;405.50;;;44.50;;
21727;SDS011;11026;50.560;17.852;2022-11-27T04:53:11;363.88;;;42.88;;
21727;SDS011;11026;50.560;17.852;2022-11-27T04:55:38;285.77;;;47.15;;
21727;SDS011;11026;50.560;17.852;2022-11-27T04:58:06;493.35;;;48.88;;
21727;SDS011;11026;50.560;17.852;2022-11-27T05:00:33;271.38;;;42.53;;
21727;SDS011;11026;50.560;17.852;2022-11-27T05:03:00;374.52;;;45.67;;
21727;SDS011;11026;50.560;17.852;2022-11-27T05:05:29;288.63;;;43.10;;
21727;SDS011;11026;50.560;17.852;2022-11-27T05:07:57;300.27;;;41.72;;
21727;SDS011;11026;50.560;17.852;2022-11-27T05:10:25;266.45;;;41.60;;
21727;SDS011;11026;50.560;17.852;2022-11-27T05:12:52;266.17;;;41.00;;
21727;SDS011;11026;50.560;17.852;2022-11-27T05:15:19;417.63;;;46.42;;
21727;SDS011;11026;50.560;17.852;2022-11-27T05:17:46;335.90;;;38.10;;
21727;SDS011;11026;50.560;17.852;2022-11-27T05:20:16;294.05;;;42.22;;
21727;SDS011;11026;50.560;17.852;2022-11-27T05:22:43;159.98;;;37.50;;
21727;SDS011;11026;50.560;17.852;2022-11-27T05:25:11;277.77;;;41.97;;
21727;SDS011;11026;50.560;17.852;2022-11-27T05:27:38;159.90;;;36.75;;
21727;SDS011;11026;50.560;17.852;2022-11-27T05:30:07;143.63;;;38.47;;
21727;SDS011;11026;50.560;17.852;2022-11-27T05:32:35;93.13;;;36.03;;
21727;SDS011;11026;50.560;17.852;2022-11-27T05:35:03;343.77;;;46.42;;
21727;SDS011;11026;50.560;17.852;2022-11-27T05:37:31;357.30;;;42.42;;
21727;SDS011;11026;50.560;17.852;2022-11-27T05:39:58;204.98;;;42.80;;
21727;SDS011;11026;50.560;17.852;2022-11-27T05:42:26;279.20;;;43.10;;
21727;SDS011;11026;50.560;17.852;2022-11-27T05:44:53;229.60;;;38.70;;
21727;SDS011;11026;50.560;17.852;2022-11-27T05:47:24;192.85;;;40.05;;
21727;SDS011;11026;50.560;17.852;2022-11-27T05:49:51;196.20;;;39.67;;
21727;SDS011;11026;50.560;17.852;2022-11-27T05:52:19;292.65;;;47.38;;
21727;SDS011;11026;50.560;17.852;2022-11-27T05:54:47;207.52;;;43.85;;
21727;SDS011;11026;50.560;17.852;2022-11-27T05:57:14;129.95;;;40.97;;
21727;SDS011;11026;50.560;17.852;2022-11-27T05:59:42;136.18;;;39.60;;
21727;SDS011;11026;50.560;17.852;2022-11-27T06:02:10;87.53;;;37.10;;
21727;SDS011;11026;50.560;17.852;2022-11-27T06:04:46;82.43;;;39.25;;
21727;SDS011;11026;50.560;17.852;2022-11-27T06:07:15;74.70;;;33.58;;
21727;SDS011;11026;50.560;17.852;2022-11-27T06:09:42;80.72;;;36.53;;
21727;SDS011;11026;50.560;17.852;2022-11-27T06:12:11;75.57;;;34.40;;
21727;SDS011;11026;50.560;17.852;2022-11-27T06:14:39;76.97;;;36.90;;
21727;SDS011;11026;50.560;17.852;2022-11-27T06:19:37;74.22;;;33.80;;
21727;SDS011;11026;50.560;17.852;2022-11-27T06:22:05;67.85;;;33.20;;
21727;SDS011;11026;50.560;17.852;2022-11-27T06:24:34;71.68;;;35.08;;
21727;SDS011;11026;50.560;17.852;2022-11-27T06:27:01;70.13;;;33.53;;
21727;SDS011;11026;50.560;17.852;2022-11-27T06:29:29;76.55;;;35.88;;
21727;SDS011;11026;50.560;17.852;2022-11-27T06:31:56;77.65;;;36.13;;
21727;SDS011;11026;50.560;17.852;2022-11-27T06:34:25;76.68;;;33.63;;
21727;SDS011;11026;50.560;17.852;2022-11-27T06:36:52;75.10;;;34.30;;
21727;SDS011;11026;50.560;17.852;2022-11-27T06:39:19;74.28;;;33.95;;
21727;SDS011;11026;50.560;17.852;2022-11-27T06:41:48;76.10;;;33.00;;
21727;SDS011;11026;50.560;17.852;2022-11-27T06:44:15;81.05;;;33.63;;
21727;SDS011;11026;50.560;17.852;2022-11-27T06:46:44;96.43;;;35.80;;
21727;SDS011;11026;50.560;17.852;2022-11-27T06:49:11;82.13;;;35.58;;
21727;SDS011;11026;50.560;17.852;2022-11-27T06:51:38;79.60;;;34.42;;
21727;SDS011;11026;50.560;17.852;2022-11-27T06:54:05;86.47;;;36.50;;
21727;SDS011;11026;50.560;17.852;2022-11-27T06:56:32;86.70;;;36.13;;
21727;SDS011;11026;50.560;17.852;2022-11-27T06:59:00;97.70;;;40.22;;
21727;SDS011;11026;50.560;17.852;2022-11-27T07:01:28;110.38;;;39.92;;
21727;SDS011;11026;50.560;17.852;2022-11-27T07:03:57;98.15;;;38.22;;
21727;SDS011;11026;50.560;17.852;2022-11-27T07:06:25;92.35;;;38.03;;
21727;SDS011;11026;50.560;17.852;2022-11-27T07:08:53;89.20;;;37.33;;
21727;SDS011;11026;50.560;17.852;2022-11-27T07:11:26;89.82;;;39.13;;
21727;SDS011;11026;50.560;17.852;2022-11-27T07:13:58;114.72;;;51.47;;
21727;SDS011;11026;50.560;17.852;2022-11-27T07:16:27;152.90;;;72.00;;
21727;SDS011;11026;50.560;17.852;2022-11-27T07:18:59;109.70;;;42.72;;
21727;SDS011;11026;50.560;17.852;2022-11-27T07:21:29;141.07;;;43.35;;
21727;SDS011;11026;50.560;17.852;2022-11-27T07:23:56;94.43;;;38.88;;
21727;SDS011;11026;50.560;17.852;2022-11-27T07:26:25;98.30;;;37.72;;
21727;SDS011;11026;50.560;17.852;2022-11-27T07:28:55;102.32;;;38.42;;
21727;SDS011;11026;50.560;17.852;2022-11-27T07:31:26;108.95;;;38.75;;
21727;SDS011;11026;50.560;17.852;2022-11-27T07:33:55;83.35;;;36.50;;
21727;SDS011;11026;50.560;17.852;2022-11-27T07:36:27;87.22;;;35.58;;
21727;SDS011;11026;50.560;17.852;2022-11-27T07:38:56;78.82;;;35.47;;
21727;SDS011;11026;50.560;17.852;2022-11-27T07:41:24;73.82;;;33.35;;
21727;SDS011;11026;50.560;17.852;2022-11-27T07:43:59;92.75;;;37.50;;
21727;SDS011;11026;50.560;17.852;2022-11-27T07:46:26;79.50;;;37.17;;
21727;SDS011;11026;50.560;17.852;2022-11-27T07:48:56;91.70;;;40.20;;
21727;SDS011;11026;50.560;17.852;2022-11-27T07:51:26;88.40;;;37.83;;
21727;SDS011;11026;50.560;17.852;2022-11-27T07:53:53;84.15;;;37.92;;
21727;SDS011;11026;50.560;17.852;2022-11-27T07:56:21;84.28;;;38.90;;
21727;SDS011;11026;50.560;17.852;2022-11-27T07:58:56;86.30;;;40.10;;
21727;SDS011;11026;50.560;17.852;2022-11-27T08:01:25;101.03;;;42.13;;
21727;SDS011;11026;50.560;17.852;2022-11-27T08:03:52;90.13;;;40.10;;
21727;SDS011;11026;50.560;17.852;2022-11-27T08:06:21;89.55;;;41.17;;
21727;SDS011;11026;50.560;17.852;2022-11-27T08:08:50;91.93;;;40.78;;
21727;SDS011;11026;50.560;17.852;2022-11-27T08:11:24;90.10;;;38.67;;
21727;SDS011;11026;50.560;17.852;2022-11-27T08:16:34;90.38;;;39.63;;
21727;SDS011;11026;50.560;17.852;2022-11-27T08:19:01;87.07;;;39.77;;
21727;SDS011;11026;50.560;17.852;2022-11-27T08:21:30;88.95;;;39.50;;
21727;SDS011;11026;50.560;17.852;2022-11-27T08:23:58;93.30;;;39.53;;
21727;SDS011;11026;50.560;17.852;2022-11-27T08:26:27;85.65;;;36.95;;
21727;SDS011;11026;50.560;17.852;2022-11-27T08:28:55;91.38;;;40.33;;
21727;SDS011;11026;50.560;17.852;2022-11-27T08:31:23;86.03;;;38.75;;
21727;SDS011;11026;50.560;17.852;2022-11-27T08:33:51;93.75;;;40.40;;
21727;SDS011;11026;50.560;17.852;2022-11-27T08:36:18;100.72;;;42.97;;
21727;SDS011;11026;50.560;17.852;2022-11-27T08:38:46;95.57;;;43.58;;
21727;SDS011;11026;50.560;17.852;2022-11-27T08:41:13;101.78;;;47.05;;
21727;SDS011;11026;50.560;17.852;2022-11-27T08:43:41;104.43;;;46.92;;
21727;SDS011;11026;50.560;17.852;2022-11-27T08:46:08;103.80;;;45.53;;
21727;SDS011;11026;50.560;17.852;2022-11-27T08:48:35;91.53;;;45.08;;
21727;SDS011;11026;50.560;17.852;2022-11-27T08:51:10;101.05;;;46.28;;
21727;SDS011;11026;50.560;17.852;2022-11-27T08:53:45;113.40;;;53.80;;
21727;SDS011;11026;50.560;17.852;2022-11-27T08:56:14;94.75;;;44.83;;
21727;SDS011;11026;50.560;17.852;2022-11-27T08:58:45;94.32;;;43.33;;
21727;SDS011;11026;50.560;17.852;2022-11-27T09:01:14;83.97;;;37.78;;
21727;SDS011;11026;50.560;17.852;2022-11-27T09:03:44;82.50;;;37.58;;
21727;SDS011;11026;50.560;17.852;2022-11-27T09:06:13;76.78;;;35.83;;
21727;SDS011;11026;50.560;17.852;2022-11-27T09:08:43;69.07;;;34.60;;
21727;SDS011;11026;50.560;17.852;2022-11-27T09:11:11;66.63;;;32.97;;
21727;SDS011;11026;50.560;17.852;2022-11-27T09:13:40;62.05;;;32.95;;
21727;SDS011;11026;50.560;17.852;2022-11-27T09:16:12;63.70;;;32.25;;
21727;SDS011;11026;50.560;17.852;2022-11-27T09:18:46;68.85;;;32.13;;
21727;SDS011;11026;50.560;17.852;2022-11-27T09:21:16;66.00;;;31.15;;
21727;SDS011;11026;50.560;17.852;2022-11-27T09:23:47;56.75;;;29.33;;
21727;SDS011;11026;50.560;17.852;2022-11-27T09:26:19;54.60;;;28.65;;
21727;SDS011;11026;50.560;17.852;2022-11-27T09:28:46;59.03;;;29.80;;
21727;SDS011;11026;50.560;17.852;2022-11-27T09:31:13;54.35;;;28.92;;
21727;SDS011;11026;50.560;17.852;2022-11-27T09:33:42;52.78;;;28.05;;
21727;SDS011;11026;50.560;17.852;2022-11-27T09:36:15;49.58;;;27.02;;
21727;SDS011;11026;50.560;17.852;2022-11-27T09:38:46;49.20;;;26.95;;
21727;SDS011;11026;50.560;17.852;2022-11-27T09:44:26;60.28;;;33.17;;
21727;SDS011;11026;50.560;17.852;2022-11-27T09:47:13;54.40;;;30.15;;
21727;SDS011;11026;50.560;17.852;2022-11-27T09:50:25;61.78;;;34.33;;
21727;SDS011;11026;50.560;17.852;2022-11-27T09:58:01;50.72;;;28.58;;
21727;SDS011;11026;50.560;17.852;2022-11-27T10:00:32;53.65;;;29.00;;
21727;SDS011;11026;50.560;17.852;2022-11-27T10:03:00;59.40;;;31.02;;
21727;SDS011;11026;50.560;17.852;2022-11-27T10:05:41;56.92;;;30.20;;
21727;SDS011;11026;50.560;17.852;2022-11-27T10:16:47;48.00;;;25.97;;
21727;SDS011;11026;50.560;17.852;2022-11-27T10:19:30;47.90;;;26.83;;
21727;SDS011;11026;50.560;17.852;2022-11-27T10:22:23;44.95;;;25.35;;
21727;SDS011;11026;50.560;17.852;2022-11-27T10:29:54;45.10;;;25.20;;
21727;SDS011;11026;50.560;17.852;2022-11-27T10:32:29;43.13;;;25.25;;
21727;SDS011;11026;50.560;17.852;2022-11-27T10:35:22;40.97;;;23.73;;
21727;SDS011;11026;50.560;17.852;2022-11-27T10:38:07;39.33;;;22.73;;
21727;SDS011;11026;50.560;17.852;2022-11-27T10:44:17;38.13;;;23.83;;
21727;SDS011;11026;50.560;17.852;2022-11-27T10:46:53;38.10;;;20.95;;
21727;SDS011;11026;50.560;17.852;2022-11-27T10:49:27;34.80;;;21.88;;
21727;SDS011;11026;50.560;17.852;2022-11-27T10:51:54;36.83;;;22.85;;
21727;SDS011;11026;50.560;17.852;2022-11-27T10:54:28;32.90;;;21.23;;
21727;SDS011;11026;50.560;17.852;2022-11-27T10:59:48;37.00;;;23.73;;
21727;SDS011;11026;50.560;17.852;2022-11-27T11:02:39;36.67;;;24.08;;
21727;SDS011;11026;50.560;17.852;2022-11-27T11:05:20;41.17;;;24.58;;
21727;SDS011;11026;50.560;17.852;2022-11-27T11:08:18;41.00;;;25.90;;
21727;SDS011;11026;50.560;17.852;2022-11-27T11:10:53;41.33;;;24.65;;
21727;SDS011;11026;50.560;17.852;2022-11-27T11:13:29;40.38;;;25.88;;
21727;SDS011;11026;50.560;17.852;2022-11-27T11:15:59;41.22;;;26.40;;
21727;SDS011;11026;50.560;17.852;2022-11-27T11:18:32;48.53;;;25.33;;
21727;SDS011;11026;50.560;17.852;2022-11-27T11:21:02;34.13;;;22.05;;
21727;SDS011;11026;50.560;17.852;2022-11-27T11:23:34;35.35;;;21.75;;
21727;SDS011;11026;50.560;17.852;2022-11-27T11:26:07;40.42;;;23.20;;
21727;SDS011;11026;50.560;17.852;2022-11-27T11:28:52;40.30;;;24.42;;
21727;SDS011;11026;50.560;17.852;2022-11-27T11:31:22;43.60;;;25.15;;
21727;SDS011;11026;50.560;17.852;2022-11-27T11:34:03;45.80;;;25.88;;
21727;SDS011;11026;50.560;17.852;2022-11-27T11:36:52;44.55;;;27.02;;
21727;SDS011;11026;50.560;17.852;2022-11-27T11:39:25;58.25;;;33.97;;
21727;SDS011;11026;50.560;17.852;2022-11-27T11:41:55;52.30;;;30.10;;
21727;SDS011;11026;50.560;17.852;2022-11-27T11:44:28;54.08;;;31.13;;
21727;SDS011;11026;50.560;17.852;2022-11-27T11:47:01;57.90;;;32.38;;
21727;SDS011;11026;50.560;17.852;2022-11-27T11:49:35;48.45;;;28.92;;
21727;SDS011;11026;50.560;17.852;2022-11-27T12:00:24;43.22;;;28.00;;
21727;SDS011;11026;50.560;17.852;2022-11-27T12:03:23;43.55;;;26.67;;
21727;SDS011;11026;50.560;17.852;2022-11-27T12:28:49;47.72;;;28.13;;
21727;SDS011;11026;50.560;17.852;2022-11-27T12:31:44;54.03;;;29.02;;
21727;SDS011;11026;50.560;17.852;2022-11-27T12:34:54;52.20;;;26.75;;
21727;SDS011;11026;50.560;17.852;2022-11-27T12:37:34;46.38;;;26.60;;
21727;SDS011;11026;50.560;17.852;2022-11-27T12:40:15;45.95;;;25.83;;
21727;SDS011;11026;50.560;17.852;2022-11-27T12:45:37;55.45;;;31.02;;
21727;SDS011;11026;50.560;17.852;2022-11-27T12:48:18;58.42;;;31.60;;
21727;SDS011;11026;50.560;17.852;2022-11-27T12:50:59;55.22;;;30.42;;
21727;SDS011;11026;50.560;17.852;2022-11-27T12:53:32;48.75;;;27.77;;
21727;SDS011;11026;50.560;17.852;2022-11-27T12:58:47;48.67;;;26.52;;
21727;SDS011;11026;50.560;17.852;2022-11-27T13:01:28;47.25;;;25.50;;
21727;SDS011;11026;50.560;17.852;2022-11-27T13:04:55;52.15;;;27.45;;
21727;SDS011;11026;50.560;17.852;2022-11-27T13:07:19;49.63;;;28.08;;
21727;SDS011;11026;50.560;17.852;2022-11-27T13:13:22;51.10;;;27.63;;
21727;SDS011;11026;50.560;17.852;2022-11-27T13:18:20;54.63;;;29.38;;
21727;SDS011;11026;50.560;17.852;2022-11-27T13:20:57;54.58;;;29.33;;
21727;SDS011;11026;50.560;17.852;2022-11-27T13:23:31;52.60;;;30.00;;
21727;SDS011;11026;50.560;17.852;2022-11-27T13:26:07;51.25;;;28.63;;
21727;SDS011;11026;50.560;17.852;2022-11-27T13:28:45;51.42;;;29.27;;
21727;SDS011;11026;50.560;17.852;2022-11-27T13:31:19;48.92;;;27.02;;
21727;SDS011;11026;50.560;17.852;2022-11-27T13:36:40;55.97;;;29.13;;
21727;SDS011;11026;50.560;17.852;2022-11-27T13:39:23;50.60;;;29.20;;
21727;SDS011;11026;50.560;17.852;2022-11-27T13:41:58;53.97;;;29.40;;
21727;SDS011;11026;50.560;17.852;2022-11-27T13:44:29;53.65;;;29.23;;
21727;SDS011;11026;50.560;17.852;2022-11-27T13:46:58;48.33;;;27.55;;
21727;SDS011;11026;50.560;17.852;2022-11-27T13:49:31;47.65;;;27.45;;
21727;SDS011;11026;50.560;17.852;2022-11-27T13:52:13;57.95;;;30.80;;
21727;SDS011;11026;50.560;17.852;2022-11-27T13:54:51;56.38;;;31.17;;
21727;SDS011;11026;50.560;17.852;2022-11-27T13:57:19;60.42;;;31.90;;
21727;SDS011;11026;50.560;17.852;2022-11-27T13:59:54;61.47;;;32.80;;
21727;SDS011;11026;50.560;17.852;2022-11-27T14:02:51;64.20;;;33.38;;
21727;SDS011;11026;50.560;17.852;2022-11-27T14:05:19;59.95;;;32.58;;
21727;SDS011;11026;50.560;17.852;2022-11-27T14:07:59;60.88;;;32.22;;
21727;SDS011;11026;50.560;17.852;2022-11-27T14:10:28;61.65;;;31.95;;
21727;SDS011;11026;50.560;17.852;2022-11-27T14:12:59;65.57;;;33.72;;
21727;SDS011;11026;50.560;17.852;2022-11-27T14:15:32;61.28;;;31.30;;
21727;SDS011;11026;50.560;17.852;2022-11-27T14:18:18;61.80;;;31.52;;
21727;SDS011;11026;50.560;17.852;2022-11-27T14:20:52;62.60;;;32.45;;
21727;SDS011;11026;50.560;17.852;2022-11-27T14:28:48;71.15;;;35.45;;
21727;SDS011;11026;50.560;17.852;2022-11-27T14:31:28;75.88;;;38.10;;
21727;SDS011;11026;50.560;17.852;2022-11-27T14:33:57;74.22;;;36.97;;
21727;SDS011;11026;50.560;17.852;2022-11-27T14:36:50;80.03;;;39.08;;
21727;SDS011;11026;50.560;17.852;2022-11-27T14:39:28;76.70;;;37.58;;
21727;SDS011;11026;50.560;17.852;2022-11-27T14:42:22;77.35;;;38.78;;
21727;SDS011;11026;50.560;17.852;2022-11-27T14:45:01;89.07;;;41.65;;
21727;SDS011;11026;50.560;17.852;2022-11-27T14:47:38;87.72;;;42.70;;
21727;SDS011;11026;50.560;17.852;2022-11-27T14:50:17;81.18;;;40.33;;
21727;SDS011;11026;50.560;17.852;2022-11-27T14:52:53;79.43;;;42.15;;
21727;SDS011;11026;50.560;17.852;2022-11-27T14:55:21;74.88;;;40.15;;
21727;SDS011;11026;50.560;17.852;2022-11-27T14:57:59;82.63;;;43.05;;
21727;SDS011;11026;50.560;17.852;2022-11-27T15:00:27;84.20;;;44.33;;
21727;SDS011;11026;50.560;17.852;2022-11-27T15:03:07;85.38;;;42.53;;
21727;SDS011;11026;50.560;17.852;2022-11-27T15:05:37;83.75;;;43.78;;
21727;SDS011;11026;50.560;17.852;2022-11-27T15:08:06;75.28;;;40.92;;
21727;SDS011;11026;50.560;17.852;2022-11-27T15:10:42;78.53;;;41.63;;
21727;SDS011;11026;50.560;17.852;2022-11-27T15:13:22;84.75;;;42.38;;
21727;SDS011;11026;50.560;17.852;2022-11-27T15:15:53;96.72;;;47.33;;
21727;SDS011;11026;50.560;17.852;2022-11-27T15:18:29;84.40;;;43.95;;
21727;SDS011;11026;50.560;17.852;2022-11-27T15:20:59;92.97;;;44.72;;
21727;SDS011;11026;50.560;17.852;2022-11-27T15:23:34;85.50;;;44.63;;
21727;SDS011;11026;50.560;17.852;2022-11-27T15:26:03;91.72;;;45.67;;
21727;SDS011;11026;50.560;17.852;2022-11-27T15:28:49;95.60;;;45.67;;
21727;SDS011;11026;50.560;17.852;2022-11-27T15:31:23;103.75;;;49.17;;
21727;SDS011;11026;50.560;17.852;2022-11-27T15:36:36;116.25;;;55.72;;
21727;SDS011;11026;50.560;17.852;2022-11-27T15:41:50;118.60;;;55.85;;
21727;SDS011;11026;50.560;17.852;2022-11-27T15:44:22;111.68;;;52.65;;
21727;SDS011;11026;50.560;17.852;2022-11-27T15:46:58;112.15;;;51.00;;
21727;SDS011;11026;50.560;17.852;2022-11-27T15:49:27;105.40;;;48.03;;
21727;SDS011;11026;50.560;17.852;2022-11-27T15:51:55;103.45;;;46.25;;
21727;SDS011;11026;50.560;17.852;2022-11-27T15:54:24;104.30;;;45.75;;
21727;SDS011;11026;50.560;17.852;2022-11-27T15:56:52;114.60;;;48.45;;
21727;SDS011;11026;50.560;17.852;2022-11-27T15:59:19;123.25;;;51.38;;
21727;SDS011;11026;50.560;17.852;2022-11-27T16:01:47;124.45;;;52.65;;
21727;SDS011;11026;50.560;17.852;2022-11-27T16:04:15;137.40;;;55.88;;
21727;SDS011;11026;50.560;17.852;2022-11-27T16:06:45;132.45;;;59.03;;
21727;SDS011;11026;50.560;17.852;2022-11-27T16:09:12;136.93;;;58.78;;
21727;SDS011;11026;50.560;17.852;2022-11-27T16:11:40;135.40;;;58.88;;
21727;SDS011;11026;50.560;17.852;2022-11-27T16:14:10;148.40;;;63.65;;
21727;SDS011;11026;50.560;17.852;2022-11-27T16:16:38;166.85;;;66.38;;
21727;SDS011;11026;50.560;17.852;2022-11-27T16:19:06;167.93;;;68.93;;
21727;SDS011;11026;50.560;17.852;2022-11-27T16:21:34;174.73;;;70.50;;
21727;SDS011;11026;50.560;17.852;2022-11-27T16:24:03;169.65;;;74.55;;
21727;SDS011;11026;50.560;17.852;2022-11-27T16:26:32;189.48;;;79.68;;
21727;SDS011;11026;50.560;17.852;2022-11-27T16:29:00;189.13;;;79.70;;
21727;SDS011;11026;50.560;17.852;2022-11-27T16:31:30;189.15;;;79.88;;
21727;SDS011;11026;50.560;17.852;2022-11-27T16:34:03;190.35;;;80.82;;
21727;SDS011;11026;50.560;17.852;2022-11-27T16:36:32;169.40;;;72.60;;
21727;SDS011;11026;50.560;17.852;2022-11-27T16:38:59;155.73;;;66.80;;